CEQ weather

Cannes-Mandelieu Airport
Cannes/Mandelieu, Provence-Alpes-Côte-d'Azur, France

Public forecast

Using degrees Celsius for public forecast. Weather courtesy of forecast.io.

METAR (pilot weather report)

Retrieved 2019/05/27 13:30 UTC (0 seconds ago):

LFMD 271330Z AUTO 17005KT 130V200 9999 FEW036 SCT048 BKN100 18/15 Q1008 TEMPO SHRA SCT030TCU BKN066

TAF (pilot weather forecast)

Retrieved 2019/05/27 09:42 UTC (4 hours ago):

TAF LFMD 270800Z 2709/2809 VRB03KT CAVOK BECMG 2709/2711 16008KT TEMPO 2709/2718 24012KT SHRA SCT030TCU BKN066 BECMG 2721/2723 VRB04KT TEMPO 2720/2806 BKN014 BECMG 2806/2808 13005KT CAVOK